createdAt,value
2023-11-12T00:00:16.263Z,5.77
2023-11-12T00:05:21.011Z,5.71
2023-11-12T00:10:24.746Z,5.68
2023-11-12T00:15:28.457Z,5.63
2023-11-12T00:20:31.965Z,5.56
2023-11-12T00:25:36.046Z,5.51
2023-11-12T00:30:39.701Z,5.48
2023-11-12T00:35:43.505Z,5.41
2023-11-12T00:40:48.010Z,5.38
2023-11-12T00:45:59.512Z,5.32
2023-11-12T00:51:03.463Z,5.30
2023-11-12T00:56:09.196Z,5.27
2023-11-12T01:01:15.495Z,5.24
2023-11-12T01:06:19.244Z,5.21
2023-11-12T01:11:22.952Z,5.21
2023-11-12T01:16:27.196Z,5.19
2023-11-12T01:21:30.862Z,5.18
2023-11-12T01:26:35.244Z,5.14
2023-11-12T01:31:38.860Z,5.10
2023-11-12T01:36:42.693Z,5.05
2023-11-12T01:41:46.406Z,5.02
2023-11-12T01:46:52.646Z,4.99
2023-11-12T01:51:56.290Z,4.94
2023-11-12T01:57:01.769Z,4.90
2023-11-12T02:02:06.558Z,4.85
2023-11-12T02:07:10.190Z,4.80
2023-11-12T02:12:14.712Z,4.79
2023-11-12T02:17:18.490Z,4.76
2023-11-12T02:22:22.048Z,4.73
2023-11-12T02:27:25.609Z,4.68
2023-11-12T02:32:36.032Z,4.64
2023-11-12T02:37:40.054Z,4.67
2023-11-12T02:42:44.608Z,4.67
2023-11-12T02:47:48.642Z,4.67
2023-11-12T02:52:55.011Z,4.67
2023-11-12T02:57:59.666Z,4.65
2023-11-12T03:03:03.979Z,4.66
2023-11-12T03:08:07.900Z,4.63
2023-11-12T03:13:11.531Z,4.62
2023-11-12T03:18:15.377Z,4.59
2023-11-12T03:23:19.200Z,4.57
2023-11-12T03:28:22.751Z,4.53
2023-11-12T03:33:29.073Z,4.45
2023-11-12T03:38:33.138Z,4.40
2023-11-12T03:43:36.775Z,4.36
2023-11-12T03:48:40.515Z,4.32
2023-11-12T03:53:43.982Z,4.31
2023-11-12T03:58:47.832Z,4.33
2023-11-12T04:03:53.207Z,4.28
2023-11-12T04:08:57.049Z,4.28
2023-11-12T04:14:00.704Z,4.28
2023-11-12T04:19:05.013Z,4.29
2023-11-12T04:24:09.584Z,4.28
2023-11-12T04:29:14.569Z,4.28
2023-11-12T04:34:18.184Z,4.28
2023-11-12T04:39:21.938Z,4.27
2023-11-12T04:44:26.455Z,4.27
2023-11-12T04:49:30.180Z,4.22
2023-11-12T04:54:34.134Z,4.19
2023-11-12T04:59:42.164Z,4.15
2023-11-12T05:04:46.001Z,4.14
2023-11-12T05:09:49.793Z,4.14
2023-11-12T05:14:53.419Z,4.18
2023-11-12T05:19:57.246Z,4.17
2023-11-12T05:25:01.069Z,4.14
2023-11-12T05:30:05.222Z,4.11
2023-11-12T05:35:09.942Z,4.10
2023-11-12T05:40:13.885Z,4.10
2023-11-12T05:45:19.196Z,4.10
2023-11-12T05:50:24.401Z,4.12
2023-11-12T05:55:29.695Z,4.11
2023-11-12T06:00:33.729Z,4.08
2023-11-12T06:05:37.507Z,4.08
2023-11-12T06:10:44.425Z,4.04
2023-11-12T06:15:48.229Z,4.04
2023-11-12T06:20:52.010Z,4.07
2023-11-12T06:25:55.842Z,4.09
2023-11-12T06:30:59.383Z,4.14
2023-11-12T06:36:03.198Z,4.21
2023-11-12T06:41:09.852Z,4.30
2023-11-12T06:46:13.636Z,4.56
2023-11-12T06:51:25.097Z,4.94
2023-11-12T06:56:36.605Z,5.34
2023-11-12T07:01:40.372Z,5.73
2023-11-12T07:06:57.139Z,6.08
2023-11-12T07:12:08.571Z,6.40
2023-11-12T07:17:15.421Z,6.75
2023-11-12T07:22:19.947Z,6.87
2023-11-12T07:27:24.649Z,6.92
2023-11-12T07:32:28.344Z,6.93
2023-11-12T07:37:32.003Z,6.91
2023-11-12T07:42:35.962Z,7.03
2023-11-12T07:47:40.228Z,6.95
2023-11-12T07:52:44.155Z,6.89
2023-11-12T07:57:48.372Z,6.84
2023-11-12T08:02:53.072Z,6.78
2023-11-12T08:07:56.997Z,6.78
2023-11-12T08:13:00.744Z,6.83
2023-11-12T08:18:06.618Z,6.87
2023-11-12T08:23:10.459Z,6.89
2023-11-12T08:28:14.361Z,6.88
2023-11-12T08:33:18.632Z,6.95
2023-11-12T08:38:22.438Z,7.12
2023-11-12T08:43:26.032Z,7.22
2023-11-12T08:48:33.147Z,7.35
2023-11-12T08:53:38.363Z,7.40
2023-11-12T08:58:42.111Z,7.53
2023-11-12T09:03:45.774Z,7.63
2023-11-12T09:08:49.370Z,7.73
2023-11-12T09:13:52.993Z,7.89
2023-11-12T09:18:57.188Z,8.05
2023-11-12T09:24:01.357Z,8.21
2023-11-12T09:29:05.171Z,8.36
2023-11-12T09:34:08.886Z,8.47
2023-11-12T09:39:14.383Z,8.54
2023-11-12T09:44:35.434Z,8.49
2023-11-12T09:49:43.867Z,8.45
2023-11-12T09:54:48.607Z,8.44
2023-11-12T09:59:53.172Z,8.72
2023-11-12T10:05:02.137Z,9.21
2023-11-12T10:10:25.703Z,9.83
2023-11-12T10:15:34.948Z,10.32
2023-11-12T10:20:41.521Z,10.56
2023-11-12T10:25:49.712Z,10.66
2023-11-12T10:30:55.167Z,10.63
2023-11-12T10:36:10.206Z,10.18
2023-11-12T10:41:14.042Z,9.78
2023-11-12T10:46:17.889Z,9.55
2023-11-12T10:51:21.797Z,9.42
2023-11-12T10:56:28.484Z,9.44
2023-11-12T11:01:35.483Z,9.37
2023-11-12T11:06:42.345Z,9.40
2023-11-12T11:11:50.497Z,9.42
2023-11-12T11:16:54.984Z,9.35
2023-11-12T11:22:30.852Z,9.13
2023-11-12T11:27:34.751Z,9.00
2023-11-12T11:32:38.679Z,8.89
2023-11-12T11:38:11.466Z,8.84
2023-11-12T11:43:24.631Z,8.83
2023-11-12T11:48:28.975Z,8.82
2023-11-12T11:53:33.281Z,8.84
2023-11-12T11:58:52.860Z,8.95
2023-11-12T12:04:07.198Z,9.01
2023-11-12T12:09:18.052Z,9.06
2023-11-12T12:14:25.677Z,9.07
2023-11-12T12:19:29.436Z,9.05
2023-11-12T12:29:39.432Z,8.83
2023-11-12T12:34:46.315Z,8.80
2023-11-12T12:39:54.672Z,8.90
2023-11-12T12:44:59.904Z,8.94
2023-11-12T12:50:17.181Z,8.91
2023-11-12T12:55:22.678Z,8.90
2023-11-12T13:00:26.790Z,8.97
2023-11-12T13:05:30.418Z,9.04
2023-11-12T13:10:35.333Z,9.08
2023-11-12T13:15:39.156Z,9.02
2023-11-12T13:20:44.124Z,9.04
2023-11-12T13:25:51.164Z,9.00
2023-11-12T13:30:55.420Z,8.97
2023-11-12T13:36:01.273Z,8.94
2023-11-12T13:41:05.408Z,8.92
2023-11-12T13:46:09.113Z,8.82
2023-11-12T13:51:15.642Z,8.79
2023-11-12T13:56:19.341Z,8.74
2023-11-12T14:01:24.923Z,8.67
2023-11-12T14:06:28.561Z,8.61
2023-11-12T14:11:32.080Z,8.57
2023-11-12T14:16:39.004Z,8.51
2023-11-12T14:21:46.526Z,8.42
2023-11-12T14:26:51.177Z,8.36
2023-11-12T14:31:54.816Z,8.25
2023-11-12T14:36:58.886Z,8.10
2023-11-12T14:42:04.430Z,7.95
2023-11-12T14:47:07.998Z,7.76
2023-11-12T14:52:12.565Z,7.53
2023-11-12T14:57:17.864Z,7.22
2023-11-12T15:02:21.860Z,6.91
2023-11-12T15:07:25.786Z,6.65
2023-11-12T15:12:30.720Z,6.38
2023-11-12T15:17:34.328Z,6.09
2023-11-12T15:22:38.714Z,5.86
2023-11-12T15:27:46.587Z,5.63
2023-11-12T15:32:50.472Z,5.43
2023-11-12T15:37:54.284Z,5.30
2023-11-12T15:42:58.491Z,5.21
2023-11-12T15:48:02.107Z,5.16
2023-11-12T15:53:06.136Z,5.07
2023-11-12T15:58:12.369Z,4.98
2023-11-12T16:03:18.860Z,4.87
2023-11-12T16:08:22.943Z,4.79
2023-11-12T16:13:26.896Z,4.74
2023-11-12T16:18:30.341Z,4.63
2023-11-12T16:23:34.304Z,4.44
2023-11-12T16:28:39.544Z,4.26
2023-11-12T16:33:43.352Z,4.12
2023-11-12T16:38:46.911Z,3.97
2023-11-12T16:43:50.648Z,3.87
2023-11-12T16:48:54.968Z,3.81
2023-11-12T16:53:58.538Z,3.71
2023-11-12T16:59:02.034Z,3.64
2023-11-12T17:04:06.145Z,3.58
2023-11-12T17:09:13.417Z,3.52
2023-11-12T17:14:18.286Z,3.47
2023-11-12T17:19:22.379Z,3.43
2023-11-12T17:24:25.932Z,3.35
2023-11-12T17:29:29.564Z,3.31
2023-11-12T17:34:33.237Z,3.26
2023-11-12T17:39:37.148Z,3.18
2023-11-12T17:44:43.102Z,3.12
2023-11-12T17:49:56.470Z,3.05
2023-11-12T17:55:00.250Z,3.03
2023-11-12T18:00:07.372Z,2.97
2023-11-12T18:05:11.346Z,2.92
2023-11-12T18:10:15.206Z,2.87
2023-11-12T18:15:20.517Z,2.78
2023-11-12T18:20:25.207Z,2.70
2023-11-12T18:25:28.682Z,2.56
2023-11-12T18:30:32.698Z,2.48
2023-11-12T18:35:36.934Z,2.40
2023-11-12T18:40:43.259Z,2.34
2023-11-12T18:45:46.830Z,2.23
2023-11-12T18:50:52.120Z,2.07
2023-11-12T18:55:56.215Z,1.98
2023-11-12T19:01:00.768Z,1.93
2023-11-12T19:06:04.584Z,1.91
2023-11-12T19:11:08.602Z,1.87
2023-11-12T19:16:12.439Z,1.78
2023-11-12T19:21:16.427Z,1.70
2023-11-12T19:26:23.564Z,1.66
2023-11-12T19:31:33.163Z,1.66
2023-11-12T19:36:41.514Z,1.68
2023-11-12T19:41:45.297Z,1.71
2023-11-12T19:46:49.205Z,1.72
2023-11-12T19:51:52.756Z,1.68
2023-11-12T19:56:58.779Z,1.58
2023-11-12T20:02:07.625Z,1.53
2023-11-12T20:07:11.694Z,1.46
2023-11-12T20:12:15.554Z,1.40
2023-11-12T20:17:19.204Z,1.37
2023-11-12T20:22:22.959Z,1.35
2023-11-12T20:27:26.633Z,1.31
2023-11-12T20:32:30.301Z,1.23
2023-11-12T20:37:34.029Z,1.16
2023-11-12T20:42:38.884Z,1.09
2023-11-12T20:47:42.582Z,1.07
2023-11-12T20:52:46.975Z,1.04
2023-11-12T20:57:53.477Z,1.10
2023-11-12T21:02:57.369Z,1.18
2023-11-12T21:08:01.368Z,1.30
2023-11-12T21:13:04.908Z,1.41
2023-11-12T21:18:12.709Z,1.53
2023-11-12T21:23:16.343Z,1.62
2023-11-12T21:28:21.599Z,1.70
2023-11-12T21:33:25.433Z,1.76
2023-11-12T21:38:28.996Z,1.78
2023-11-12T21:43:33.865Z,1.76
2023-11-12T21:48:38.975Z,1.76
2023-11-12T21:53:42.763Z,1.74
2023-11-12T21:58:46.875Z,1.65
2023-11-12T22:03:51.513Z,1.62
2023-11-12T22:08:56.357Z,1.58
2023-11-12T22:14:00.770Z,1.59
2023-11-12T22:19:08.978Z,1.57
2023-11-12T22:24:12.710Z,1.54
2023-11-12T22:29:16.207Z,1.50
2023-11-12T22:34:22.434Z,1.51
2023-11-12T22:39:26.338Z,1.49
2023-11-12T22:44:30.320Z,1.45
2023-11-12T22:49:33.973Z,1.49
2023-11-12T22:54:38.376Z,1.46
2023-11-12T22:59:42.531Z,1.45
2023-11-12T23:04:46.124Z,1.34
2023-11-12T23:09:49.935Z,1.36
2023-11-12T23:14:53.482Z,1.37
2023-11-12T23:19:57.127Z,1.42
2023-11-12T23:25:01.805Z,1.53
2023-11-12T23:30:08.575Z,1.59
2023-11-12T23:35:12.489Z,1.73
2023-11-12T23:40:16.398Z,1.86
2023-11-12T23:45:20.042Z,1.95
2023-11-12T23:50:26.859Z,2.03
2023-11-12T23:55:30.475Z,2.01
